Time;durP1;ratioP1;P1;durP2;ratioP2;P2;SDS_P1;SDS_P2;PMS_P1;PMS_P2;Temp;Humidity;BMP_temperature;BMP_pressure;BME280_temperature;BME280_humidity;BME280_pressure;Samples;Min_cycle;Max_cycle;Signal;HPM_P1;HPM_P2
2024/04/13 00:01:20;;;;;;;11.38;4.82;;;;;;;;;;5441000;26;20046;-64
2024/04/13 00:03:49;;;;;;;10.45;4.88;;;;;;;;;;5445215;26;19991;-62
2024/04/13 00:06:15;;;;;;;10.57;4.80;;;;;;;;;;5451283;26;20007;-64
2024/04/13 00:08:40;;;;;;;7.97;4.10;;;;;;;;;;5451803;26;20586;-64
2024/04/13 00:11:08;;;;;;;11.05;4.68;;;;;;;;;;5447180;26;20526;-63
2024/04/13 00:13:34;;;;;;;10.13;4.30;;;;;;;;;;5446051;26;20454;-63
2024/04/13 00:15:59;;;;;;;10.52;4.50;;;;;;;;;;5446506;26;20003;-64
2024/04/13 00:18:25;;;;;;;9.07;4.13;;;;;;;;;;5429295;26;20011;-63
2024/04/13 00:20:50;;;;;;;8.85;3.63;;;;;;;;;;5443143;26;20068;-62
2024/04/13 00:23:16;;;;;;;8.90;3.83;;;;;;;;;;5417145;26;19999;-64
2024/04/13 00:25:41;;;;;;;7.43;3.78;;;;;;;;;;5416886;26;19999;-63
2024/04/13 00:28:10;;;;;;;9.23;3.70;;;;;;;;;;5442594;26;20075;-63
2024/04/13 00:30:36;;;;;;;8.35;3.78;;;;;;;;;;5451979;26;20003;-62
2024/04/13 00:33:02;;;;;;;7.85;3.58;;;;;;;;;;5449210;26;20434;-65
2024/04/13 00:35:27;;;;;;;8.23;3.80;;;;;;;;;;5452050;26;19999;-63
2024/04/13 00:37:53;;;;;;;7.57;3.50;;;;;;;;;;5451314;26;20017;-62
2024/04/13 00:40:18;;;;;;;9.18;3.38;;;;;;;;;;5450426;26;20015;-64
2024/04/13 00:42:45;;;;;;;7.35;3.20;;;;;;;;;;5442220;26;20015;-63
2024/04/13 00:45:11;;;;;;;7.45;3.20;;;;;;;;;;5435602;26;20011;-63
2024/04/13 00:47:37;;;;;;;7.45;2.88;;;;;;;;;;5451261;26;20003;-63
2024/04/13 00:50:03;;;;;;;6.88;3.10;;;;;;;;;;5452428;26;20071;-64
2024/04/13 00:52:29;;;;;;;6.00;3.13;;;;;;;;;;5450815;26;20002;-62
2024/04/13 00:54:55;;;;;;;;;;;;;;;;;;5427801;26;20014;-62
2024/04/13 00:57:21;;;;;;;7.68;3.40;;;;;;;;;;5418737;26;19940;-63
2024/04/13 00:59:46;;;;;;;7.47;2.92;;;;;;;;;;5427601;26;20096;-62
2024/04/13 01:02:14;;;;;;;7.55;3.35;;;;;;;;;;5437943;26;19999;-63
2024/04/13 01:04:41;;;;;;;7.40;3.20;;;;;;;;;;5443587;26;20014;-63
2024/04/13 01:07:07;;;;;;;6.68;3.30;;;;;;;;;;5436868;26;19991;-63
2024/04/13 01:09:33;;;;;;;9.65;3.42;;;;;;;;;;5452553;26;20045;-63
2024/04/13 01:11:59;;;;;;;8.15;3.50;;;;;;;;;;5452188;26;19991;-62
2024/04/13 01:14:24;;;;;;;8.23;3.00;;;;;;;;;;5445960;26;20018;-64
2024/04/13 01:16:50;;;;;;;8.48;3.10;;;;;;;;;;5431829;26;20011;-62
2024/04/13 01:19:15;;;;;;;7.82;3.17;;;;;;;;;;5450728;26;20054;-63
2024/04/13 01:21:43;;;;;;;6.50;2.80;;;;;;;;;;5452116;26;20044;-63
2024/04/13 01:24:08;;;;;;;7.85;3.10;;;;;;;;;;5421634;26;19995;-62
2024/04/13 01:26:37;;;;;;;7.97;3.00;;;;;;;;;;5423802;26;20447;-62
2024/04/13 01:29:04;;;;;;;6.78;3.42;;;;;;;;;;5431299;26;20138;-65
2024/04/13 01:31:30;;;;;;;7.93;3.55;;;;;;;;;;5442940;26;20457;-62
2024/04/13 01:33:55;;;;;;;6.38;3.00;;;;;;;;;;5441645;26;19995;-63
2024/04/13 01:36:22;;;;;;;7.78;3.65;;;;;;;;;;5450686;26;20002;-64
2024/04/13 01:38:48;;;;;;;6.07;3.10;;;;;;;;;;5452129;26;19999;-62
2024/04/13 01:41:13;;;;;;;10.82;3.67;;;;;;;;;;5452432;26;20071;-63
2024/04/13 01:43:39;;;;;;;6.68;2.97;;;;;;;;;;5446822;26;20007;-64
2024/04/13 01:46:05;;;;;;;7.00;3.17;;;;;;;;;;5441104;26;20003;-63
2024/04/13 01:48:31;;;;;;;6.50;3.10;;;;;;;;;;5450788;26;20423;-63
2024/04/13 01:50:56;;;;;;;6.13;2.80;;;;;;;;;;5451483;26;19990;-63
2024/04/13 01:53:22;;;;;;;6.03;2.92;;;;;;;;;;5449843;26;20002;-63
2024/04/13 01:55:47;;;;;;;6.30;3.05;;;;;;;;;;5442320;26;20075;-62
2024/04/13 01:58:13;;;;;;;8.13;3.00;;;;;;;;;;5425520;26;20014;-67
2024/04/13 02:00:39;;;;;;;6.57;2.80;;;;;;;;;;5443221;26;20007;-63
2024/04/13 02:03:04;;;;;;;10.63;3.00;;;;;;;;;;5457962;26;20017;-63
2024/04/13 02:05:33;;;;;;;6.30;2.95;;;;;;;;;;5457160;26;20002;-62
2024/04/13 02:07:59;;;;;;;8.30;3.55;;;;;;;;;;5453301;26;20350;-61
2024/04/13 02:10:24;;;;;;;6.88;3.30;;;;;;;;;;5439607;26;20458;-62
2024/04/13 02:12:51;;;;;;;8.18;3.20;;;;;;;;;;5432380;26;20486;-62
2024/04/13 02:15:16;;;;;;;6.43;3.10;;;;;;;;;;5437601;26;20018;-61
2024/04/13 02:17:42;;;;;;;8.27;3.75;;;;;;;;;;5439078;26;20003;-63
2024/04/13 02:20:07;;;;;;;6.50;2.92;;;;;;;;;;5446104;26;20071;-64
2024/04/13 02:22:35;;;;;;;7.88;3.13;;;;;;;;;;5449640;26;20382;-64
2024/04/13 02:25:02;;;;;;;6.13;3.03;;;;;;;;;;5446490;26;20010;-62
2024/04/13 02:27:27;;;;;;;6.30;2.80;;;;;;;;;;5428261;26;20002;-63
2024/04/13 02:29:53;;;;;;;7.05;3.38;;;;;;;;;;5447332;26;20435;-65
2024/04/13 02:32:18;;;;;;;5.88;2.95;;;;;;;;;;5440805;26;20004;-64
2024/04/13 02:34:44;;;;;;;6.03;2.90;;;;;;;;;;5444007;26;20466;-63
2024/04/13 02:37:09;;;;;;;6.28;2.90;;;;;;;;;;5429901;26;20004;-63
2024/04/13 02:39:37;;;;;;;6.70;3.35;;;;;;;;;;5419458;26;20002;-62
2024/04/13 02:42:02;;;;;;;9.20;4.07;;;;;;;;;;5443956;26;20723;-63
2024/04/13 02:44:28;;;;;;;8.32;3.90;;;;;;;;;;5444993;26;20011;-62
2024/04/13 02:46:54;;;;;;;8.80;4.43;;;;;;;;;;5430527;26;20019;-64
2024/04/13 02:49:20;;;;;;;8.35;4.30;;;;;;;;;;5449974;26;20400;-62
2024/04/13 02:51:45;;;;;;;7.95;4.18;;;;;;;;;;5450364;26;20671;-64
2024/04/13 02:54:11;;;;;;;7.88;4.13;;;;;;;;;;5437026;26;20451;-63
2024/04/13 02:56:37;;;;;;;9.65;5.90;;;;;;;;;;5437514;26;20010;-63
2024/04/13 02:59:03;;;;;;;11.02;6.45;;;;;;;;;;5445164;26;20071;-65
2024/04/13 03:01:28;;;;;;;9.85;5.22;;;;;;;;;;5439683;26;20011;-65
2024/04/13 03:03:54;;;;;;;8.05;4.60;;;;;;;;;;5440531;26;20006;-63
2024/04/13 03:06:19;;;;;;;9.35;4.50;;;;;;;;;;5433241;26;20005;-62
2024/04/13 03:08:45;;;;;;;8.65;4.65;;;;;;;;;;5449156;26;20014;-63
2024/04/13 03:11:11;;;;;;;8.70;4.38;;;;;;;;;;5446046;26;20003;-62
2024/04/13 03:13:37;;;;;;;8.02;4.15;;;;;;;;;;5441204;26;19995;-62
2024/04/13 03:16:04;;;;;;;9.68;4.97;;;;;;;;;;5444062;26;20010;-63
2024/04/13 03:18:30;;;;;;;7.05;3.60;;;;;;;;;;5425463;26;20013;-62
2024/04/13 03:20:56;;;;;;;7.18;3.42;;;;;;;;;;5450216;26;20003;-64
2024/04/13 03:23:21;;;;;;;7.53;3.40;;;;;;;;;;5448851;26;20013;-64
2024/04/13 03:25:48;;;;;;;7.60;3.80;;;;;;;;;;5448401;26;20424;-63
2024/04/13 03:28:13;;;;;;;6.13;3.08;;;;;;;;;;5444183;26;20412;-62
2024/04/13 03:30:39;;;;;;;8.50;3.92;;;;;;;;;;5441710;26;20019;-64
2024/04/13 03:33:05;;;;;;;7.97;4.15;;;;;;;;;;5446836;26;20006;-62
2024/04/13 03:35:37;;;;;;;7.97;4.25;;;;;;;;;;5449123;26;20006;-62
2024/04/13 03:38:03;;;;;;;7.18;3.72;;;;;;;;;;5422583;26;20014;-63
2024/04/13 03:40:28;;;;;;;7.82;4.00;;;;;;;;;;5449957;26;20339;-63
2024/04/13 03:42:54;;;;;;;6.55;3.40;;;;;;;;;;5448601;26;20098;-63
2024/04/13 03:45:19;;;;;;;8.15;3.38;;;;;;;;;;5442953;26;20009;-64
2024/04/13 03:47:45;;;;;;;6.30;3.42;;;;;;;;;;5442105;26;20002;-63
2024/04/13 03:50:10;;;;;;;6.05;3.22;;;;;;;;;;5446721;26;20002;-63
2024/04/13 03:52:37;;;;;;;6.20;3.20;;;;;;;;;;5428175;26;20071;-63
2024/04/13 03:55:04;;;;;;;6.72;2.60;;;;;;;;;;5440923;26;20032;-62
2024/04/13 03:57:30;;;;;;;5.10;2.78;;;;;;;;;;5438127;26;20018;-64
2024/04/13 03:59:57;;;;;;;6.32;2.88;;;;;;;;;;5449288;26;20007;-63
2024/04/13 04:02:22;;;;;;;5.55;2.88;;;;;;;;;;5438022;26;20003;-64
2024/04/13 04:04:48;;;;;;;6.43;3.00;;;;;;;;;;5456155;26;20040;-64
2024/04/13 04:07:14;;;;;;;7.05;3.20;;;;;;;;;;5453094;26;20013;-62
2024/04/13 04:09:39;;;;;;;7.00;2.97;;;;;;;;;;5450472;26;20011;-63
2024/04/13 04:12:05;;;;;;;5.38;2.72;;;;;;;;;;5448457;26;19995;-63
2024/04/13 04:14:31;;;;;;;8.07;3.22;;;;;;;;;;5450209;26;19998;-62
2024/04/13 04:16:56;;;;;;;5.70;2.92;;;;;;;;;;5428731;26;20015;-64
2024/04/13 04:19:22;;;;;;;8.40;3.67;;;;;;;;;;5440727;26;20082;-63
2024/04/13 04:21:48;;;;;;;8.13;3.70;;;;;;;;;;5437057;26;20000;-65
2024/04/13 04:24:14;;;;;;;7.65;3.45;;;;;;;;;;5450410;26;19999;-64
2024/04/13 04:26:39;;;;;;;6.85;3.33;;;;;;;;;;5450826;26;20010;-64
2024/04/13 04:29:05;;;;;;;6.85;3.38;;;;;;;;;;5436781;26;20074;-65
2024/04/13 04:31:30;;;;;;;5.88;2.92;;;;;;;;;;5423093;26;20082;-64
2024/04/13 04:33:56;;;;;;;6.95;2.78;;;;;;;;;;5447660;26;20071;-63
2024/04/13 04:36:22;;;;;;;6.63;3.28;;;;;;;;;;5449769;26;20010;-63
2024/04/13 04:38:49;;;;;;;6.07;2.40;;;;;;;;;;5449073;26;20002;-62
2024/04/13 04:41:14;;;;;;;8.45;3.25;;;;;;;;;;5444508;26;20023;-63
2024/04/13 04:43:40;;;;;;;9.27;2.95;;;;;;;;;;5420259;26;20012;-62
2024/04/13 04:46:07;;;;;;;6.97;3.40;;;;;;;;;;5448499;26;20067;-65
2024/04/13 04:48:34;;;;;;;8.55;3.70;;;;;;;;;;5447485;26;20031;-64
2024/04/13 04:51:01;;;;;;;6.35;2.90;;;;;;;;;;5443099;26;19999;-63
2024/04/13 04:53:26;;;;;;;5.50;2.58;;;;;;;;;;5444782;26;20022;-64
2024/04/13 04:55:52;;;;;;;6.30;2.88;;;;;;;;;;5430934;26;20003;-63
2024/04/13 04:58:18;;;;;;;6.10;2.80;;;;;;;;;;5440313;26;20006;-65
2024/04/13 05:00:43;;;;;;;5.97;2.75;;;;;;;;;;5446435;26;20326;-63
2024/04/13 05:03:09;;;;;;;8.02;2.92;;;;;;;;;;5430189;26;20384;-63
2024/04/13 05:05:34;;;;;;;7.93;3.30;;;;;;;;;;5438601;26;20413;-65
2024/04/13 05:08:00;;;;;;;6.50;2.90;;;;;;;;;;5435661;26;20543;-62
2024/04/13 05:10:26;;;;;;;5.88;2.90;;;;;;;;;;5441313;26;20495;-63
2024/04/13 05:12:52;;;;;;;6.65;3.08;;;;;;;;;;5427020;26;20368;-63
2024/04/13 05:15:17;;;;;;;5.75;2.65;;;;;;;;;;5443809;26;20007;-63
2024/04/13 05:17:43;;;;;;;9.07;3.47;;;;;;;;;;5431109;26;20009;-63
2024/04/13 05:20:08;;;;;;;6.63;2.83;;;;;;;;;;5427341;26;20003;-63
2024/04/13 05:22:34;;;;;;;6.13;2.80;;;;;;;;;;5428738;26;20034;-64
2024/04/13 05:25:00;;;;;;;5.57;2.70;;;;;;;;;;5432440;26;20074;-63
2024/04/13 05:27:26;;;;;;;5.47;2.70;;;;;;;;;;5428173;26;20002;-64
2024/04/13 05:29:53;;;;;;;5.32;2.60;;;;;;;;;;5440333;26;20122;-63
2024/04/13 05:32:19;;;;;;;7.15;2.58;;;;;;;;;;5436029;26;20002;-62
2024/04/13 05:34:46;;;;;;;6.93;2.88;;;;;;;;;;5421758;26;20756;-63
2024/04/13 05:37:13;;;;;;;5.40;2.70;;;;;;;;;;5434297;26;20346;-63
2024/04/13 05:39:38;;;;;;;7.60;2.90;;;;;;;;;;5423071;26;20006;-63
2024/04/13 05:42:04;;;;;;;5.13;2.40;;;;;;;;;;5437792;26;19999;-65
2024/04/13 05:44:30;;;;;;;7.20;2.75;;;;;;;;;;5426603;26;20347;-64
2024/04/13 05:46:55;;;;;;;5.55;2.50;;;;;;;;;;5434749;26;20010;-64
2024/04/13 05:49:21;;;;;;;5.90;2.80;;;;;;;;;;5424511;26;20002;-62
2024/04/13 05:51:48;;;;;;;7.30;2.95;;;;;;;;;;5450939;26;20014;-61
2024/04/13 05:54:13;;;;;;;6.78;2.92;;;;;;;;;;5431590;26;20581;-60
2024/04/13 05:56:39;;;;;;;6.85;2.60;;;;;;;;;;5448397;26;20039;-63
2024/04/13 05:59:04;;;;;;;6.05;2.28;;;;;;;;;;5447755;26;19999;-61
2024/04/13 06:01:31;;;;;;;6.55;2.72;;;;;;;;;;5425071;26;20003;-62
2024/04/13 06:03:56;;;;;;;5.95;2.30;;;;;;;;;;5436476;26;19996;-63
2024/04/13 06:06:22;;;;;;;6.45;2.30;;;;;;;;;;5454073;26;20341;-61
2024/04/13 06:08:48;;;;;;;5.75;2.38;;;;;;;;;;5443758;26;20439;-66
2024/04/13 06:11:13;;;;;;;6.20;2.40;;;;;;;;;;5429193;26;20396;-61
2024/04/13 06:13:41;;;;;;;5.95;2.80;;;;;;;;;;5442008;26;20529;-62
2024/04/13 06:16:06;;;;;;;7.82;3.03;;;;;;;;;;5449211;26;19991;-63
2024/04/13 06:18:32;;;;;;;5.97;2.83;;;;;;;;;;5445337;26;20003;-62
2024/04/13 06:20:57;;;;;;;7.57;2.80;;;;;;;;;;5442042;26;20001;-64
2024/04/13 06:23:23;;;;;;;6.13;2.40;;;;;;;;;;5445722;26;20008;-64
2024/04/13 06:25:48;;;;;;;5.95;2.50;;;;;;;;;;5444434;26;20072;-65
2024/04/13 06:28:14;;;;;;;4.47;2.25;;;;;;;;;;5425431;26;20010;-65
2024/04/13 06:30:42;;;;;;;7.40;2.92;;;;;;;;;;5421106;26;20469;-65
2024/04/13 06:33:07;;;;;;;5.57;2.60;;;;;;;;;;5429165;26;20380;-66
2024/04/13 06:35:33;;;;;;;7.15;2.83;;;;;;;;;;5437755;26;20087;-63
2024/04/13 06:37:59;;;;;;;7.43;2.90;;;;;;;;;;5437039;26;20475;-64
2024/04/13 06:40:24;;;;;;;6.55;2.83;;;;;;;;;;5432246;26;20014;-62
2024/04/13 06:42:50;;;;;;;7.47;2.35;;;;;;;;;;5427900;26;20071;-63
2024/04/13 06:45:16;;;;;;;5.95;2.58;;;;;;;;;;5416957;26;20004;-64
2024/04/13 06:47:42;;;;;;;5.72;2.47;;;;;;;;;;5430806;26;20009;-63
2024/04/13 06:50:07;;;;;;;7.03;2.63;;;;;;;;;;5424236;26;20091;-63
2024/04/13 06:52:33;;;;;;;8.75;2.40;;;;;;;;;;5445036;26;20006;-64
2024/04/13 06:54:58;;;;;;;5.70;2.55;;;;;;;;;;5430314;26;20003;-64
2024/04/13 06:57:25;;;;;;;7.68;2.65;;;;;;;;;;5432296;26;19996;-63
2024/04/13 06:59:51;;;;;;;6.45;2.40;;;;;;;;;;5430271;26;19999;-64
2024/04/13 07:02:17;;;;;;;6.25;2.65;;;;;;;;;;5420171;26;20743;-62
2024/04/13 07:04:42;;;;;;;6.45;2.60;;;;;;;;;;5436592;26;21325;-65
2024/04/13 07:07:08;;;;;;;6.43;2.80;;;;;;;;;;5440727;26;20349;-66
2024/04/13 07:09:33;;;;;;;6.32;2.88;;;;;;;;;;5437576;26;20019;-64
2024/04/13 07:11:59;;;;;;;6.57;2.47;;;;;;;;;;5436388;26;20066;-64
2024/04/13 07:14:24;;;;;;;5.97;2.60;;;;;;;;;;5425325;26;19999;-63
2024/04/13 07:16:50;;;;;;;6.55;2.50;;;;;;;;;;5436234;26;20075;-63
2024/04/13 07:19:17;;;;;;;5.18;2.38;;;;;;;;;;5446562;26;19990;-64
2024/04/13 07:21:43;;;;;;;5.70;2.10;;;;;;;;;;5450780;26;20075;-65
2024/04/13 07:24:08;;;;;;;8.60;2.60;;;;;;;;;;5450174;26;20022;-64
2024/04/13 07:26:34;;;;;;;7.38;2.30;;;;;;;;;;5450251;26;20003;-64
2024/04/13 07:29:00;;;;;;;11.10;2.58;;;;;;;;;;5432157;26;20455;-63
2024/04/13 07:31:25;;;;;;;6.70;2.28;;;;;;;;;;5449875;26;20006;-63
2024/04/13 07:33:51;;;;;;;5.75;2.00;;;;;;;;;;5449350;26;19999;-63
2024/04/13 07:36:16;;;;;;;5.93;2.30;;;;;;;;;;5449596;26;19990;-63
2024/04/13 07:38:42;;;;;;;6.88;2.63;;;;;;;;;;5448631;26;19990;-64
2024/04/13 07:41:07;;;;;;;9.30;2.97;;;;;;;;;;5434947;26;20002;-63
2024/04/13 07:43:33;;;;;;;6.00;2.20;;;;;;;;;;5438534;26;20098;-63
2024/04/13 07:45:59;;;;;;;5.80;2.05;;;;;;;;;;5449672;26;20332;-63
2024/04/13 07:48:25;;;;;;;5.25;2.00;;;;;;;;;;5448397;26;20404;-63
2024/04/13 07:50:50;;;;;;;6.47;2.50;;;;;;;;;;5449436;26;20013;-63
2024/04/13 07:53:16;;;;;;;5.22;2.15;;;;;;;;;;5449384;26;20107;-62
2024/04/13 07:55:41;;;;;;;6.95;2.35;;;;;;;;;;5449637;26;20011;-63
2024/04/13 07:58:07;;;;;;;7.45;2.47;;;;;;;;;;5445692;26;20095;-64
2024/04/13 08:00:32;;;;;;;9.52;3.00;;;;;;;;;;5434113;26;20019;-64
2024/04/13 08:02:58;;;;;;;6.70;2.78;;;;;;;;;;5443080;26;19995;-64
2024/04/13 08:05:23;;;;;;;6.57;2.65;;;;;;;;;;5448773;26;20011;-63
2024/04/13 08:07:49;;;;;;;6.18;2.83;;;;;;;;;;5449759;26;19997;-64
2024/04/13 08:10:14;;;;;;;7.38;2.72;;;;;;;;;;5449633;26;19999;-63
2024/04/13 08:12:40;;;;;;;8.13;2.90;;;;;;;;;;5441807;26;20079;-64
2024/04/13 08:15:10;;;;;;;8.27;3.35;;;;;;;;;;5449536;26;19994;-63
2024/04/13 08:17:36;;;;;;;10.32;2.97;;;;;;;;;;5446211;26;20007;-63
2024/04/13 08:20:01;;;;;;;8.00;2.97;;;;;;;;;;5448892;26;20068;-64
2024/04/13 08:22:27;;;;;;;7.32;3.13;;;;;;;;;;5447821;26;20084;-64
2024/04/13 08:24:54;;;;;;;5.75;2.83;;;;;;;;;;5436964;26;20015;-64
2024/04/13 08:27:19;;;;;;;;;;;;;;;;;;5432828;26;20043;-64
2024/04/13 08:29:48;;;;;;;6.82;3.08;;;;;;;;;;5446381;26;19925;-65
2024/04/13 08:32:14;;;;;;;7.40;4.07;;;;;;;;;;5441196;26;19999;-64
2024/04/13 08:34:40;;;;;;;8.13;3.38;;;;;;;;;;5442539;26;20007;-64
2024/04/13 08:37:06;;;;;;;7.63;3.30;;;;;;;;;;5452164;26;20462;-63
2024/04/13 08:39:34;;;;;;;6.53;3.00;;;;;;;;;;5453748;26;20030;-63
2024/04/13 08:42:05;;;;;;;6.55;3.05;;;;;;;;;;5453558;26;20474;-64
2024/04/13 08:44:30;;;;;;;6.72;2.55;;;;;;;;;;5428225;26;19994;-62
2024/04/13 08:46:56;;;;;;;7.93;2.30;;;;;;;;;;5446631;26;20014;-64
2024/04/13 08:49:22;;;;;;;5.72;2.40;;;;;;;;;;5453212;26;20043;-63
2024/04/13 08:51:48;;;;;;;5.10;2.35;;;;;;;;;;5436229;26;20080;-64
2024/04/13 08:54:16;;;;;;;5.53;2.10;;;;;;;;;;5443816;26;20008;-64
2024/04/13 08:56:44;;;;;;;7.45;2.03;;;;;;;;;;5448136;26;20011;-64
2024/04/13 08:59:10;;;;;;;5.43;1.60;;;;;;;;;;5438282;26;19991;-63
2024/04/13 09:01:37;;;;;;;5.15;1.48;;;;;;;;;;5430555;26;20004;-66
2024/04/13 09:04:03;;;;;;;4.03;1.30;;;;;;;;;;5445680;26;20006;-63
2024/04/13 09:06:28;;;;;;;5.25;1.40;;;;;;;;;;5449552;26;20002;-64
2024/04/13 09:08:54;;;;;;;3.92;1.27;;;;;;;;;;5454546;26;20059;-64
2024/04/13 09:11:22;;;;;;;4.70;1.83;;;;;;;;;;5453147;26;19998;-63
2024/04/13 09:13:47;;;;;;;5.10;1.88;;;;;;;;;;5450413;26;20077;-63
2024/04/13 09:16:13;;;;;;;6.10;1.77;;;;;;;;;;5441627;26;20007;-64
2024/04/13 09:18:40;;;;;;;5.75;1.25;;;;;;;;;;5443161;26;19999;-64
2024/04/13 09:21:07;;;;;;;3.85;1.10;;;;;;;;;;5446225;26;20011;-65
2024/04/13 09:23:33;;;;;;;5.25;1.90;;;;;;;;;;5442600;26;19999;-63
2024/04/13 09:26:05;;;;;;;5.28;1.45;;;;;;;;;;5453042;26;20002;-63
2024/04/13 09:28:40;;;;;;;3.08;1.13;;;;;;;;;;5451798;26;19995;-65
2024/04/13 09:31:08;;;;;;;4.88;1.08;;;;;;;;;;5449235;26;20432;-64
2024/04/13 09:33:33;;;;;;;3.88;1.35;;;;;;;;;;5452739;26;20011;-63
2024/04/13 09:35:59;;;;;;;3.42;1.25;;;;;;;;;;5453582;26;20010;-64
2024/04/13 09:38:24;;;;;;;4.13;1.25;;;;;;;;;;5453195;26;20011;-64
2024/04/13 09:40:59;;;;;;;4.43;1.52;;;;;;;;;;5450793;26;20395;-62
2024/04/13 09:43:25;;;;;;;12.75;7.57;;;;;;;;;;5451976;26;20017;-63
2024/04/13 09:45:56;;;;;;;7.70;2.00;;;;;;;;;;5450433;26;20003;-64
2024/04/13 09:48:22;;;;;;;4.72;1.40;;;;;;;;;;5430721;26;20014;-65
2024/04/13 09:50:47;;;;;;;3.10;1.00;;;;;;;;;;5427372;26;20442;-64
2024/04/13 09:53:13;;;;;;;4.78;1.15;;;;;;;;;;5440428;26;20419;-64
2024/04/13 09:55:39;;;;;;;3.30;1.20;;;;;;;;;;5420209;26;20501;-64
2024/04/13 09:58:04;;;;;;;3.17;1.10;;;;;;;;;;5415253;26;20870;-64
2024/04/13 10:00:30;;;;;;;4.55;1.10;;;;;;;;;;5417587;26;20447;-66
2024/04/13 10:02:55;;;;;;;5.43;1.20;;;;;;;;;;5417575;26;20011;-63
2024/04/13 10:05:22;;;;;;;3.55;0.90;;;;;;;;;;5426151;26;20074;-65
2024/04/13 10:07:47;;;;;;;;;;;;;;;;;;5443226;26;20030;-65
2024/04/13 10:10:13;;;;;;;3.33;0.90;;;;;;;;;;5442850;26;20011;-65
2024/04/13 10:12:38;;;;;;;;;;;;;;;;;;5436905;26;20445;-64
2024/04/13 10:15:05;;;;;;;3.73;1.00;;;;;;;;;;5431267;26;19936;-65
2024/04/13 10:17:30;;;;;;;3.08;0.82;;;;;;;;;;5428677;26;20365;-62
2024/04/13 10:19:56;;;;;;;2.95;1.00;;;;;;;;;;5444361;26;19994;-63
2024/04/13 10:22:22;;;;;;;2.95;0.93;;;;;;;;;;5436002;26;20333;-65
2024/04/13 10:24:48;;;;;;;4.20;1.23;;;;;;;;;;5431639;26;19999;-65
2024/04/13 10:27:13;;;;;;;4.20;0.90;;;;;;;;;;5435380;26;19999;-64
2024/04/13 10:29:46;;;;;;;4.10;0.90;;;;;;;;;;5423142;26;20030;-64
2024/04/13 10:32:22;;;;;;;3.33;0.73;;;;;;;;;;5435979;26;20006;-64
2024/04/13 10:34:48;;;;;;;3.47;0.80;;;;;;;;;;5439713;26;20006;-66
2024/04/13 10:37:26;;;;;;;2.33;0.70;;;;;;;;;;5426948;26;20012;-63
2024/04/13 10:39:58;;;;;;;4.55;0.90;;;;;;;;;;5427692;26;20040;-63
2024/04/13 10:42:33;;;;;;;4.18;0.85;;;;;;;;;;5415809;26;20014;-63
2024/04/13 10:44:59;;;;;;;3.20;0.80;;;;;;;;;;5436740;26;20462;-65
2024/04/13 10:47:24;;;;;;;1.83;0.60;;;;;;;;;;5423407;26;20036;-64
2024/04/13 10:49:51;;;;;;;2.83;0.80;;;;;;;;;;5425929;26;20068;-65
2024/04/13 10:52:17;;;;;;;4.28;0.90;;;;;;;;;;5450732;26;20003;-64
2024/04/13 10:54:53;;;;;;;3.30;0.80;;;;;;;;;;5418569;26;20006;-64
2024/04/13 10:57:19;;;;;;;4.70;0.95;;;;;;;;;;5418432;26;20014;-63
2024/04/13 10:59:44;;;;;;;2.90;0.90;;;;;;;;;;5427124;26;20010;-66
2024/04/13 11:02:10;;;;;;;2.53;0.80;;;;;;;;;;5416535;26;20045;-65
2024/04/13 11:04:45;;;;;;;4.22;1.00;;;;;;;;;;5443124;26;20001;-64
2024/04/13 11:07:12;;;;;;;2.20;0.63;;;;;;;;;;5438016;26;20003;-64
2024/04/13 11:09:38;;;;;;;2.63;0.80;;;;;;;;;;5435459;26;20001;-63
2024/04/13 11:12:13;;;;;;;3.15;0.70;;;;;;;;;;5447727;26;19995;-64
2024/04/13 11:14:39;;;;;;;3.05;0.90;;;;;;;;;;5448255;26;20531;-64
2024/04/13 11:17:04;;;;;;;1.65;0.60;;;;;;;;;;5433418;26;19996;-64
2024/04/13 11:19:30;;;;;;;4.32;0.90;;;;;;;;;;5437976;26;19995;-66
2024/04/13 11:21:57;;;;;;;3.28;0.80;;;;;;;;;;5423177;26;20519;-65
2024/04/13 11:24:22;;;;;;;1.63;0.52;;;;;;;;;;5424351;26;20014;-65
2024/04/13 11:26:48;;;;;;;4.35;0.93;;;;;;;;;;5436468;26;20000;-65
2024/04/13 11:29:14;;;;;;;2.38;0.90;;;;;;;;;;5438388;26;20657;-64
2024/04/13 11:31:39;;;;;;;;;;;;;;;;;;5422909;26;20072;-63
2024/04/13 11:34:05;;;;;;;2.97;0.90;;;;;;;;;;5425813;26;19925;-64
2024/04/13 11:36:31;;;;;;;3.13;0.85;;;;;;;;;;5418339;26;20840;-65
2024/04/13 11:38:57;;;;;;;;;;;;;;;;;;5433927;26;20005;-66
2024/04/13 11:41:22;;;;;;;2.75;0.70;;;;;;;;;;5436729;26;19936;-65
2024/04/13 11:43:54;;;;;;;3.40;0.60;;;;;;;;;;5430785;26;20007;-66
2024/04/13 11:46:20;;;;;;;3.35;0.88;;;;;;;;;;5426928;26;20439;-65
2024/04/13 11:48:46;;;;;;;2.45;0.90;;;;;;;;;;5430131;26;20003;-66
2024/04/13 11:51:11;;;;;;;2.85;1.33;;;;;;;;;;5437453;26;20327;-65
2024/04/13 11:53:37;;;;;;;4.63;1.00;;;;;;;;;;5445487;26;20380;-65
2024/04/13 11:56:07;;;;;;;2.40;0.80;;;;;;;;;;5429193;26;20620;-63
2024/04/13 11:58:32;;;;;;;3.67;0.80;;;;;;;;;;5436883;26;20032;-63
2024/04/13 12:00:58;;;;;;;2.70;0.70;;;;;;;;;;5436655;26;20093;-63
2024/04/13 12:03:23;;;;;;;2.72;0.70;;;;;;;;;;5427374;26;20012;-65
2024/04/13 12:05:49;;;;;;;3.35;0.75;;;;;;;;;;5430010;26;20000;-64
2024/04/13 12:08:15;;;;;;;;;;;;;;;;;;5423794;26;20007;-64
2024/04/13 12:10:40;;;;;;;3.80;0.90;;;;;;;;;;5427646;26;19924;-65
2024/04/13 12:13:06;;;;;;;1.50;0.65;;;;;;;;;;5448957;26;20923;-65
2024/04/13 12:15:31;;;;;;;3.35;0.90;;;;;;;;;;5437735;26;20465;-64
2024/04/13 12:17:57;;;;;;;2.70;0.75;;;;;;;;;;5449625;26;20292;-64
2024/04/13 12:20:23;;;;;;;2.75;0.68;;;;;;;;;;5440618;26;20309;-65
2024/04/13 12:22:48;;;;;;;2.65;0.80;;;;;;;;;;5431300;26;20496;-65
2024/04/13 12:25:14;;;;;;;3.35;0.70;;;;;;;;;;5423818;26;20004;-64
2024/04/13 12:27:39;;;;;;;2.45;0.80;;;;;;;;;;5423603;26;19999;-63
2024/04/13 12:30:05;;;;;;;2.95;0.80;;;;;;;;;;5432063;26;20003;-65
2024/04/13 12:32:30;;;;;;;2.60;1.00;;;;;;;;;;5441943;26;20553;-65
2024/04/13 12:34:57;;;;;;;2.40;0.80;;;;;;;;;;5441988;26;20015;-64
2024/04/13 12:37:22;;;;;;;3.17;0.70;;;;;;;;;;5444162;26;20007;-64
2024/04/13 12:39:48;;;;;;;3.92;1.00;;;;;;;;;;5435313;26;20328;-66
2024/04/13 12:42:14;;;;;;;4.00;1.13;;;;;;;;;;5434778;26;20070;-64
2024/04/13 12:44:39;;;;;;;3.83;1.10;;;;;;;;;;5435894;26;20332;-63
2024/04/13 12:47:05;;;;;;;2.55;0.80;;;;;;;;;;5433423;26;20148;-66
2024/04/13 12:49:30;;;;;;;3.13;1.10;;;;;;;;;;5442006;26;19994;-64
2024/04/13 12:51:56;;;;;;;4.78;1.27;;;;;;;;;;5445237;26;19991;-63
2024/04/13 12:54:21;;;;;;;3.47;1.33;;;;;;;;;;5427871;26;20004;-64
2024/04/13 12:56:47;;;;;;;3.15;0.98;;;;;;;;;;5428340;26;20072;-64
2024/04/13 12:59:12;;;;;;;4.38;0.90;;;;;;;;;;5427834;26;20002;-63
2024/04/13 13:01:38;;;;;;;2.67;0.75;;;;;;;;;;5436789;26;20000;-64
2024/04/13 13:04:04;;;;;;;;;;;;;;;;;;5420772;26;20015;-65
2024/04/13 13:06:30;;;;;;;4.80;0.93;;;;;;;;;;5435480;26;19932;-63
2024/04/13 13:08:56;;;;;;;2.60;1.20;;;;;;;;;;5445355;26;20317;-64
2024/04/13 13:11:21;;;;;;;3.00;0.90;;;;;;;;;;5423812;26;20342;-64
2024/04/13 13:13:48;;;;;;;3.53;0.85;;;;;;;;;;5429302;26;20368;-66
2024/04/13 13:16:13;;;;;;;8.32;0.93;;;;;;;;;;5428610;26;20007;-64
2024/04/13 13:18:39;;;;;;;2.70;0.90;;;;;;;;;;5435464;26;20052;-63
2024/04/13 13:21:04;;;;;;;3.03;1.00;;;;;;;;;;5435515;26;20127;-62
2024/04/13 13:23:30;;;;;;;5.90;1.10;;;;;;;;;;5448734;26;20346;-63
2024/04/13 13:25:55;;;;;;;;;;;;;;;;;;5438160;26;20013;-64
2024/04/13 13:28:21;;;;;;;3.23;0.90;;;;;;;;;;5436990;26;19931;-65
2024/04/13 13:30:47;;;;;;;2.80;0.90;;;;;;;;;;5428723;26;20873;-67
2024/04/13 13:33:12;;;;;;;2.13;0.80;;;;;;;;;;5431200;26;20067;-65
2024/04/13 13:35:38;;;;;;;2.47;0.98;;;;;;;;;;5435046;26;20011;-66
2024/04/13 13:38:03;;;;;;;3.08;0.98;;;;;;;;;;5422226;26;20069;-64
2024/04/13 13:40:29;;;;;;;4.13;1.10;;;;;;;;;;5429373;26;19996;-64
2024/04/13 13:42:54;;;;;;;2.65;0.90;;;;;;;;;;5448403;26;20400;-65
2024/04/13 13:45:20;;;;;;;4.05;0.88;;;;;;;;;;5441381;26;20442;-64
2024/04/13 13:47:46;;;;;;;3.47;1.00;;;;;;;;;;5430814;26;20008;-64
2024/04/13 13:50:13;;;;;;;5.40;1.00;;;;;;;;;;5433862;26;19998;-63
2024/04/13 13:52:38;;;;;;;3.90;1.00;;;;;;;;;;5440214;26;19995;-65
2024/04/13 13:55:04;;;;;;;4.18;1.02;;;;;;;;;;5432760;26;20063;-65
2024/04/13 13:57:29;;;;;;;3.92;1.10;;;;;;;;;;5435835;26;20000;-64
2024/04/13 13:59:55;;;;;;;2.65;1.00;;;;;;;;;;5427866;26;20010;-65
2024/04/13 14:02:22;;;;;;;2.92;0.95;;;;;;;;;;5417201;26;20071;-66
2024/04/13 14:04:47;;;;;;;4.43;1.02;;;;;;;;;;5431538;26;20052;-64
2024/04/13 14:07:13;;;;;;;5.45;1.40;;;;;;;;;;5451044;26;19998;-64
2024/04/13 14:09:39;;;;;;;3.13;0.98;;;;;;;;;;5430354;26;20007;-65
2024/04/13 14:12:05;;;;;;;3.92;1.33;;;;;;;;;;5442261;26;20003;-63
2024/04/13 14:14:31;;;;;;;3.75;0.90;;;;;;;;;;5448204;26;19999;-65
2024/04/13 14:16:58;;;;;;;5.40;1.10;;;;;;;;;;5436320;26;20467;-66
2024/04/13 14:19:23;;;;;;;5.38;1.50;;;;;;;;;;5440835;26;19996;-64
2024/04/13 14:21:49;;;;;;;2.70;1.08;;;;;;;;;;5447494;26;19999;-65
2024/04/13 14:24:15;;;;;;;3.10;1.30;;;;;;;;;;5434550;26;20455;-63
2024/04/13 14:26:41;;;;;;;2.60;1.00;;;;;;;;;;5429764;26;20071;-67
2024/04/13 14:29:06;;;;;;;2.63;1.00;;;;;;;;;;5428238;26;20022;-62
2024/04/13 14:31:32;;;;;;;3.53;1.17;;;;;;;;;;5438902;26;20142;-63
2024/04/13 14:33:57;;;;;;;4.28;1.10;;;;;;;;;;5439766;26;20017;-64
2024/04/13 14:36:23;;;;;;;5.05;1.23;;;;;;;;;;5438047;26;20063;-65
2024/04/13 14:38:48;;;;;;;3.63;1.10;;;;;;;;;;5418009;26;20112;-64